KOKB

Bob Maxwell Memorial Airfield Airport

Oceanside, California, USA
METAR KOKB 170252Z AUTO 12004KT 10SM CLR 18/12 A3001 RMK AO2 SLP161 T01830122 53021
Observed Flight Rules
Oct-17 @ 02:52 UTC (17 minutes ago) Visual Flight Rules
Wind Visibility Clouds
120° at 4 knots 10 miles
  • Clear skies
Temperatures Readings
Current 18°C / 64°F
Dewpoint 12°C / 54°F
Humidity 68%
Altimeter 30.01" Hg
Pressure 1016.1 hPa
Elevation 8
METAR KOKB 170252Z AUTO 12004KT 10SM CLR 18/12 A3001 RMK AO2 SLP161 T01830122 53021
Observed Flight Rules
Oct-17 @ 02:52 UTC
(17 minutes ago)
VFR
Wind Visibility
120° at 4 knots 10 miles
Clouds
  • Clear skies
Temperature Dewpoint
18°C / 64°F 12°C / 54°F
Humidity Altimeter Pressure
68% 30.01" Hg 1016.1 hPa